sensor_id;sensor_type;location;lat;lon;timestamp;P1;durP1;ratioP1;P2;durP2;ratioP2
32094;SDS011;18608;53.688;10.748;2023-07-24T00:00:18;3.90;;;2.93;;
32094;SDS011;18608;53.688;10.748;2023-07-24T00:02:44;4.17;;;3.50;;
32094;SDS011;18608;53.688;10.748;2023-07-24T00:05:10;3.60;;;3.20;;
32094;SDS011;18608;53.688;10.748;2023-07-24T00:07:36;4.20;;;3.30;;
32094;SDS011;18608;53.688;10.748;2023-07-24T00:10:03;4.17;;;3.77;;
32094;SDS011;18608;53.688;10.748;2023-07-24T00:12:29;5.53;;;4.00;;
32094;SDS011;18608;53.688;10.748;2023-07-24T00:14:55;5.47;;;3.57;;
32094;SDS011;18608;53.688;10.748;2023-07-24T00:17:21;5.87;;;3.40;;
32094;SDS011;18608;53.688;10.748;2023-07-24T00:19:46;4.20;;;2.97;;
32094;SDS011;18608;53.688;10.748;2023-07-24T00:22:12;10.70;;;3.70;;
32094;SDS011;18608;53.688;10.748;2023-07-24T00:24:38;5.60;;;3.10;;
32094;SDS011;18608;53.688;10.748;2023-07-24T00:27:04;3.17;;;2.87;;
32094;SDS011;18608;53.688;10.748;2023-07-24T00:29:30;2.83;;;2.63;;
32094;SDS011;18608;53.688;10.748;2023-07-24T00:31:56;4.37;;;3.00;;
32094;SDS011;18608;53.688;10.748;2023-07-24T00:34:22;3.13;;;2.73;;
32094;SDS011;18608;53.688;10.748;2023-07-24T00:36:48;4.00;;;2.73;;
32094;SDS011;18608;53.688;10.748;2023-07-24T00:39:14;3.17;;;2.87;;
32094;SDS011;18608;53.688;10.748;2023-07-24T00:41:41;3.47;;;3.17;;
32094;SDS011;18608;53.688;10.748;2023-07-24T00:44:08;4.30;;;3.90;;
32094;SDS011;18608;53.688;10.748;2023-07-24T00:46:34;7.70;;;2.87;;
32094;SDS011;18608;53.688;10.748;2023-07-24T00:49:01;3.17;;;2.90;;
32094;SDS011;18608;53.688;10.748;2023-07-24T00:51:27;3.77;;;3.47;;
32094;SDS011;18608;53.688;10.748;2023-07-24T00:53:57;5.13;;;3.43;;
32094;SDS011;18608;53.688;10.748;2023-07-24T00:56:26;3.83;;;3.37;;
32094;SDS011;18608;53.688;10.748;2023-07-24T00:58:54;3.87;;;3.30;;
32094;SDS011;18608;53.688;10.748;2023-07-24T01:01:23;3.23;;;2.73;;
32094;SDS011;18608;53.688;10.748;2023-07-24T01:03:49;4.40;;;4.00;;
32094;SDS011;18608;53.688;10.748;2023-07-24T01:06:15;3.63;;;3.30;;
32094;SDS011;18608;53.688;10.748;2023-07-24T01:08:41;3.40;;;2.70;;
32094;SDS011;18608;53.688;10.748;2023-07-24T01:11:15;4.70;;;3.30;;
32094;SDS011;18608;53.688;10.748;2023-07-24T01:13:56;3.30;;;3.10;;
32094;SDS011;18608;53.688;10.748;2023-07-24T01:16:30;4.20;;;3.80;;
32094;SDS011;18608;53.688;10.748;2023-07-24T01:19:01;4.57;;;3.80;;
32094;SDS011;18608;53.688;10.748;2023-07-24T01:21:38;7.80;;;3.33;;
32094;SDS011;18608;53.688;10.748;2023-07-24T01:24:24;3.80;;;3.47;;
32094;SDS011;18608;53.688;10.748;2023-07-24T01:27:18;4.00;;;3.60;;
32094;SDS011;18608;53.688;10.748;2023-07-24T01:29:52;7.40;;;3.93;;
32094;SDS011;18608;53.688;10.748;2023-07-24T01:32:19;4.30;;;3.90;;
32094;SDS011;18608;53.688;10.748;2023-07-24T01:34:45;3.30;;;3.00;;
32094;SDS011;18608;53.688;10.748;2023-07-24T01:37:12;5.93;;;3.13;;
32094;SDS011;18608;53.688;10.748;2023-07-24T01:39:39;4.20;;;3.87;;
32094;SDS011;18608;53.688;10.748;2023-07-24T01:42:06;3.77;;;3.47;;
32094;SDS011;18608;53.688;10.748;2023-07-24T01:44:33;4.33;;;3.33;;
32094;SDS011;18608;53.688;10.748;2023-07-24T01:46:59;4.90;;;4.47;;
32094;SDS011;18608;53.688;10.748;2023-07-24T01:49:25;4.43;;;3.70;;
32094;SDS011;18608;53.688;10.748;2023-07-24T01:51:51;7.90;;;4.47;;
32094;SDS011;18608;53.688;10.748;2023-07-24T01:54:17;5.73;;;4.17;;
32094;SDS011;18608;53.688;10.748;2023-07-24T01:56:43;5.37;;;4.87;;
32094;SDS011;18608;53.688;10.748;2023-07-24T01:59:09;5.00;;;4.40;;
32094;SDS011;18608;53.688;10.748;2023-07-24T02:01:35;3.43;;;3.13;;
32094;SDS011;18608;53.688;10.748;2023-07-24T02:04:01;5.70;;;3.80;;
32094;SDS011;18608;53.688;10.748;2023-07-24T02:06:27;4.50;;;3.63;;
32094;SDS011;18608;53.688;10.748;2023-07-24T02:08:53;7.30;;;3.70;;
32094;SDS011;18608;53.688;10.748;2023-07-24T02:11:19;5.70;;;4.73;;
32094;SDS011;18608;53.688;10.748;2023-07-24T02:13:45;4.30;;;3.87;;
32094;SDS011;18608;53.688;10.748;2023-07-24T02:16:11;5.10;;;4.00;;
32094;SDS011;18608;53.688;10.748;2023-07-24T02:18:41;7.10;;;4.40;;
32094;SDS011;18608;53.688;10.748;2023-07-24T02:21:08;5.07;;;4.37;;
32094;SDS011;18608;53.688;10.748;2023-07-24T02:23:35;7.03;;;4.23;;
32094;SDS011;18608;53.688;10.748;2023-07-24T02:26:00;6.27;;;5.03;;
32094;SDS011;18608;53.688;10.748;2023-07-24T02:28:26;4.80;;;4.40;;
32094;SDS011;18608;53.688;10.748;2023-07-24T02:30:52;5.00;;;4.50;;
32094;SDS011;18608;53.688;10.748;2023-07-24T02:33:21;8.90;;;4.70;;
32094;SDS011;18608;53.688;10.748;2023-07-24T02:35:49;4.70;;;4.20;;
32094;SDS011;18608;53.688;10.748;2023-07-24T02:38:16;12.03;;;4.80;;
32094;SDS011;18608;53.688;10.748;2023-07-24T02:40:43;4.97;;;4.23;;
32094;SDS011;18608;53.688;10.748;2023-07-24T02:43:09;5.60;;;4.47;;
32094;SDS011;18608;53.688;10.748;2023-07-24T02:45:38;4.43;;;4.10;;
32094;SDS011;18608;53.688;10.748;2023-07-24T02:48:04;5.20;;;4.70;;
32094;SDS011;18608;53.688;10.748;2023-07-24T02:50:30;5.07;;;4.50;;
32094;SDS011;18608;53.688;10.748;2023-07-24T02:52:56;4.30;;;3.90;;
32094;SDS011;18608;53.688;10.748;2023-07-24T02:55:22;10.30;;;4.70;;
32094;SDS011;18608;53.688;10.748;2023-07-24T02:57:48;4.60;;;4.20;;
32094;SDS011;18608;53.688;10.748;2023-07-24T03:00:14;4.30;;;4.00;;
32094;SDS011;18608;53.688;10.748;2023-07-24T03:02:40;6.30;;;4.47;;
32094;SDS011;18608;53.688;10.748;2023-07-24T03:05:06;9.40;;;5.17;;
32094;SDS011;18608;53.688;10.748;2023-07-24T03:07:33;4.90;;;4.40;;
32094;SDS011;18608;53.688;10.748;2023-07-24T03:09:59;5.40;;;4.70;;
32094;SDS011;18608;53.688;10.748;2023-07-24T03:12:25;5.53;;;5.00;;
32094;SDS011;18608;53.688;10.748;2023-07-24T03:14:51;6.00;;;5.20;;
32094;SDS011;18608;53.688;10.748;2023-07-24T03:17:17;4.93;;;4.53;;
32094;SDS011;18608;53.688;10.748;2023-07-24T03:19:43;5.00;;;4.50;;
32094;SDS011;18608;53.688;10.748;2023-07-24T03:22:09;4.93;;;4.27;;
32094;SDS011;18608;53.688;10.748;2023-07-24T03:24:35;4.63;;;4.00;;
32094;SDS011;18608;53.688;10.748;2023-07-24T03:27:01;5.03;;;4.60;;
32094;SDS011;18608;53.688;10.748;2023-07-24T03:29:27;6.30;;;4.70;;
32094;SDS011;18608;53.688;10.748;2023-07-24T03:31:53;4.83;;;4.43;;
32094;SDS011;18608;53.688;10.748;2023-07-24T03:34:19;5.80;;;4.57;;
32094;SDS011;18608;53.688;10.748;2023-07-24T03:36:45;4.57;;;4.10;;
32094;SDS011;18608;53.688;10.748;2023-07-24T03:39:11;5.30;;;4.80;;
32094;SDS011;18608;53.688;10.748;2023-07-24T03:41:38;8.33;;;5.10;;
32094;SDS011;18608;53.688;10.748;2023-07-24T03:44:04;4.63;;;4.23;;
32094;SDS011;18608;53.688;10.748;2023-07-24T03:46:31;9.47;;;4.93;;
32094;SDS011;18608;53.688;10.748;2023-07-24T03:48:57;5.80;;;5.30;;
32094;SDS011;18608;53.688;10.748;2023-07-24T03:51:23;5.03;;;4.57;;
32094;SDS011;18608;53.688;10.748;2023-07-24T03:53:49;7.50;;;4.70;;
32094;SDS011;18608;53.688;10.748;2023-07-24T03:56:15;6.13;;;4.97;;
32094;SDS011;18608;53.688;10.748;2023-07-24T03:58:41;16.83;;;6.30;;
32094;SDS011;18608;53.688;10.748;2023-07-24T04:01:07;10.10;;;5.30;;
32094;SDS011;18608;53.688;10.748;2023-07-24T04:03:34;4.90;;;4.50;;
32094;SDS011;18608;53.688;10.748;2023-07-24T04:06:00;6.27;;;5.10;;
32094;SDS011;18608;53.688;10.748;2023-07-24T04:08:26;7.47;;;6.67;;
32094;SDS011;18608;53.688;10.748;2023-07-24T04:10:52;6.00;;;5.50;;
32094;SDS011;18608;53.688;10.748;2023-07-24T04:13:21;7.20;;;5.73;;
32094;SDS011;18608;53.688;10.748;2023-07-24T04:15:47;10.90;;;5.13;;
32094;SDS011;18608;53.688;10.748;2023-07-24T04:18:13;6.43;;;5.50;;
32094;SDS011;18608;53.688;10.748;2023-07-24T04:20:39;5.77;;;4.70;;
32094;SDS011;18608;53.688;10.748;2023-07-24T04:23:05;11.03;;;5.20;;
32094;SDS011;18608;53.688;10.748;2023-07-24T04:25:31;6.30;;;5.20;;
32094;SDS011;18608;53.688;10.748;2023-07-24T04:27:57;6.40;;;5.37;;
32094;SDS011;18608;53.688;10.748;2023-07-24T04:30:23;9.63;;;6.10;;
32094;SDS011;18608;53.688;10.748;2023-07-24T04:32:50;9.20;;;5.90;;
32094;SDS011;18608;53.688;10.748;2023-07-24T04:35:16;7.27;;;5.50;;
32094;SDS011;18608;53.688;10.748;2023-07-24T04:37:42;6.33;;;5.60;;
32094;SDS011;18608;53.688;10.748;2023-07-24T04:40:08;9.10;;;5.33;;
32094;SDS011;18608;53.688;10.748;2023-07-24T04:42:35;9.00;;;5.73;;
32094;SDS011;18608;53.688;10.748;2023-07-24T04:45:01;7.10;;;4.97;;
32094;SDS011;18608;53.688;10.748;2023-07-24T04:47:27;7.50;;;6.70;;
32094;SDS011;18608;53.688;10.748;2023-07-24T04:49:53;10.93;;;6.93;;
32094;SDS011;18608;53.688;10.748;2023-07-24T04:52:20;9.57;;;5.20;;
32094;SDS011;18608;53.688;10.748;2023-07-24T04:54:46;7.90;;;5.70;;
32094;SDS011;18608;53.688;10.748;2023-07-24T04:57:12;6.00;;;4.63;;
32094;SDS011;18608;53.688;10.748;2023-07-24T04:59:38;6.87;;;6.07;;
32094;SDS011;18608;53.688;10.748;2023-07-24T05:02:04;6.70;;;5.27;;
32094;SDS011;18608;53.688;10.748;2023-07-24T05:04:30;6.80;;;5.17;;
32094;SDS011;18608;53.688;10.748;2023-07-24T05:06:56;8.23;;;4.83;;
32094;SDS011;18608;53.688;10.748;2023-07-24T05:09:22;8.57;;;4.33;;
32094;SDS011;18608;53.688;10.748;2023-07-24T05:11:48;6.03;;;5.20;;
32094;SDS011;18608;53.688;10.748;2023-07-24T05:14:14;5.10;;;4.60;;
32094;SDS011;18608;53.688;10.748;2023-07-24T05:16:40;5.60;;;5.00;;
32094;SDS011;18608;53.688;10.748;2023-07-24T05:19:06;5.17;;;4.33;;
32094;SDS011;18608;53.688;10.748;2023-07-24T05:21:32;5.50;;;4.87;;
32094;SDS011;18608;53.688;10.748;2023-07-24T05:23:58;7.03;;;5.53;;
32094;SDS011;18608;53.688;10.748;2023-07-24T05:26:24;6.93;;;5.60;;
32094;SDS011;18608;53.688;10.748;2023-07-24T05:28:50;4.90;;;4.40;;
32094;SDS011;18608;53.688;10.748;2023-07-24T05:31:17;8.20;;;6.20;;
32094;SDS011;18608;53.688;10.748;2023-07-24T05:33:43;6.07;;;5.57;;
32094;SDS011;18608;53.688;10.748;2023-07-24T05:36:09;6.10;;;5.50;;
32094;SDS011;18608;53.688;10.748;2023-07-24T05:38:35;7.60;;;5.43;;
32094;SDS011;18608;53.688;10.748;2023-07-24T05:41:02;6.87;;;6.00;;
32094;SDS011;18608;53.688;10.748;2023-07-24T05:43:29;5.90;;;5.40;;
32094;SDS011;18608;53.688;10.748;2023-07-24T05:45:56;6.30;;;5.53;;
32094;SDS011;18608;53.688;10.748;2023-07-24T05:48:22;8.07;;;5.50;;
32094;SDS011;18608;53.688;10.748;2023-07-24T05:50:49;7.60;;;5.80;;
32094;SDS011;18608;53.688;10.748;2023-07-24T05:53:15;10.30;;;5.97;;
32094;SDS011;18608;53.688;10.748;2023-07-24T05:55:41;7.50;;;5.73;;
32094;SDS011;18608;53.688;10.748;2023-07-24T05:58:07;6.23;;;5.53;;
32094;SDS011;18608;53.688;10.748;2023-07-24T06:00:34;7.03;;;5.70;;
32094;SDS011;18608;53.688;10.748;2023-07-24T06:03:00;8.53;;;6.00;;
32094;SDS011;18608;53.688;10.748;2023-07-24T06:05:26;8.43;;;5.50;;
32094;SDS011;18608;53.688;10.748;2023-07-24T06:07:52;7.87;;;4.83;;
32094;SDS011;18608;53.688;10.748;2023-07-24T06:10:18;7.10;;;5.57;;
32094;SDS011;18608;53.688;10.748;2023-07-24T06:12:44;8.10;;;6.10;;
32094;SDS011;18608;53.688;10.748;2023-07-24T06:15:10;11.43;;;6.17;;
32094;SDS011;18608;53.688;10.748;2023-07-24T06:17:36;5.90;;;4.90;;
32094;SDS011;18608;53.688;10.748;2023-07-24T06:20:02;7.63;;;6.40;;
32094;SDS011;18608;53.688;10.748;2023-07-24T06:22:28;7.90;;;5.53;;
32094;SDS011;18608;53.688;10.748;2023-07-24T06:24:54;8.53;;;6.23;;
32094;SDS011;18608;53.688;10.748;2023-07-24T06:27:20;6.63;;;5.93;;
32094;SDS011;18608;53.688;10.748;2023-07-24T06:29:46;10.63;;;5.53;;
32094;SDS011;18608;53.688;10.748;2023-07-24T06:32:12;6.27;;;5.10;;
32094;SDS011;18608;53.688;10.748;2023-07-24T06:34:38;6.20;;;5.50;;
32094;SDS011;18608;53.688;10.748;2023-07-24T06:37:04;6.53;;;5.63;;
32094;SDS011;18608;53.688;10.748;2023-07-24T06:39:30;6.53;;;5.20;;
32094;SDS011;18608;53.688;10.748;2023-07-24T06:41:56;7.50;;;5.43;;
32094;SDS011;18608;53.688;10.748;2023-07-24T06:44:22;6.13;;;5.23;;
32094;SDS011;18608;53.688;10.748;2023-07-24T06:46:48;6.43;;;5.67;;
32094;SDS011;18608;53.688;10.748;2023-07-24T06:49:14;7.00;;;5.43;;
32094;SDS011;18608;53.688;10.748;2023-07-24T06:51:40;8.40;;;5.30;;
32094;SDS011;18608;53.688;10.748;2023-07-24T06:54:06;8.33;;;5.67;;
32094;SDS011;18608;53.688;10.748;2023-07-24T06:56:32;8.07;;;5.60;;
32094;SDS011;18608;53.688;10.748;2023-07-24T06:58:58;6.07;;;5.47;;
32094;SDS011;18608;53.688;10.748;2023-07-24T07:01:24;4.77;;;4.30;;
32094;SDS011;18608;53.688;10.748;2023-07-24T07:03:50;4.00;;;3.67;;
32094;SDS011;18608;53.688;10.748;2023-07-24T07:06:16;5.63;;;4.20;;
32094;SDS011;18608;53.688;10.748;2023-07-24T07:08:42;7.90;;;4.50;;
32094;SDS011;18608;53.688;10.748;2023-07-24T07:11:08;3.87;;;3.57;;
32094;SDS011;18608;53.688;10.748;2023-07-24T07:13:34;3.40;;;3.17;;
32094;SDS011;18608;53.688;10.748;2023-07-24T07:16:00;4.33;;;3.93;;
32094;SDS011;18608;53.688;10.748;2023-07-24T07:18:26;6.23;;;4.20;;
32094;SDS011;18608;53.688;10.748;2023-07-24T07:20:53;6.70;;;5.07;;
32094;SDS011;18608;53.688;10.748;2023-07-24T07:23:19;8.20;;;3.70;;
32094;SDS011;18608;53.688;10.748;2023-07-24T07:25:45;4.30;;;3.90;;
32094;SDS011;18608;53.688;10.748;2023-07-24T07:28:15;3.70;;;3.40;;
32094;SDS011;18608;53.688;10.748;2023-07-24T07:30:41;4.13;;;3.73;;
32094;SDS011;18608;53.688;10.748;2023-07-24T07:33:07;5.87;;;3.97;;
32094;SDS011;18608;53.688;10.748;2023-07-24T07:35:33;4.20;;;3.80;;
32094;SDS011;18608;53.688;10.748;2023-07-24T07:38:00;3.60;;;3.30;;
32094;SDS011;18608;53.688;10.748;2023-07-24T07:40:26;4.57;;;4.00;;
32094;SDS011;18608;53.688;10.748;2023-07-24T07:42:56;3.60;;;3.30;;
32094;SDS011;18608;53.688;10.748;2023-07-24T07:45:25;4.37;;;3.97;;
32094;SDS011;18608;53.688;10.748;2023-07-24T07:47:50;4.73;;;3.47;;
32094;SDS011;18608;53.688;10.748;2023-07-24T07:50:18;5.03;;;3.40;;
32094;SDS011;18608;53.688;10.748;2023-07-24T07:52:44;5.40;;;4.20;;
32094;SDS011;18608;53.688;10.748;2023-07-24T07:55:10;3.03;;;2.70;;
32094;SDS011;18608;53.688;10.748;2023-07-24T07:57:37;6.37;;;4.27;;
32094;SDS011;18608;53.688;10.748;2023-07-24T08:00:03;4.13;;;3.73;;
32094;SDS011;18608;53.688;10.748;2023-07-24T08:02:30;4.53;;;3.33;;
32094;SDS011;18608;53.688;10.748;2023-07-24T08:04:57;4.27;;;3.87;;
32094;SDS011;18608;53.688;10.748;2023-07-24T08:07:23;4.50;;;4.10;;
32094;SDS011;18608;53.688;10.748;2023-07-24T08:09:49;4.90;;;4.27;;
32094;SDS011;18608;53.688;10.748;2023-07-24T08:12:15;5.27;;;3.50;;
32094;SDS011;18608;53.688;10.748;2023-07-24T08:14:41;4.90;;;4.10;;
32094;SDS011;18608;53.688;10.748;2023-07-24T08:17:07;4.43;;;4.03;;
32094;SDS011;18608;53.688;10.748;2023-07-24T08:19:33;4.57;;;4.00;;
32094;SDS011;18608;53.688;10.748;2023-07-24T08:21:59;5.17;;;3.53;;
32094;SDS011;18608;53.688;10.748;2023-07-24T08:24:25;4.13;;;3.70;;
32094;SDS011;18608;53.688;10.748;2023-07-24T08:26:51;4.30;;;3.60;;
32094;SDS011;18608;53.688;10.748;2023-07-24T08:29:17;3.93;;;3.53;;
32094;SDS011;18608;53.688;10.748;2023-07-24T08:31:43;3.50;;;3.20;;
32094;SDS011;18608;53.688;10.748;2023-07-24T08:34:09;7.43;;;4.73;;
32094;SDS011;18608;53.688;10.748;2023-07-24T08:36:35;5.37;;;3.83;;
32094;SDS011;18608;53.688;10.748;2023-07-24T08:39:02;4.27;;;3.87;;
32094;SDS011;18608;53.688;10.748;2023-07-24T08:41:28;6.33;;;4.67;;
32094;SDS011;18608;53.688;10.748;2023-07-24T08:43:56;3.33;;;3.03;;
32094;SDS011;18608;53.688;10.748;2023-07-24T08:46:22;3.60;;;3.23;;
32094;SDS011;18608;53.688;10.748;2023-07-24T08:48:48;3.70;;;3.40;;
32094;SDS011;18608;53.688;10.748;2023-07-24T08:51:14;4.60;;;3.63;;
32094;SDS011;18608;53.688;10.748;2023-07-24T08:53:43;5.73;;;3.33;;
32094;SDS011;18608;53.688;10.748;2023-07-24T08:56:10;4.63;;;4.23;;
32094;SDS011;18608;53.688;10.748;2023-07-24T08:58:37;5.17;;;3.70;;
32094;SDS011;18608;53.688;10.748;2023-07-24T09:01:07;4.90;;;4.27;;
32094;SDS011;18608;53.688;10.748;2023-07-24T09:03:33;5.53;;;3.97;;
32094;SDS011;18608;53.688;10.748;2023-07-24T09:06:00;4.23;;;3.87;;
32094;SDS011;18608;53.688;10.748;2023-07-24T09:08:36;5.87;;;4.03;;
32094;SDS011;18608;53.688;10.748;2023-07-24T09:11:02;3.80;;;3.50;;
32094;SDS011;18608;53.688;10.748;2023-07-24T09:13:29;3.20;;;2.97;;
32094;SDS011;18608;53.688;10.748;2023-07-24T09:15:55;3.70;;;3.33;;
32094;SDS011;18608;53.688;10.748;2023-07-24T09:18:21;3.83;;;3.27;;
32094;SDS011;18608;53.688;10.748;2023-07-24T09:20:47;3.90;;;3.60;;
32094;SDS011;18608;53.688;10.748;2023-07-24T09:23:14;6.00;;;4.37;;
32094;SDS011;18608;53.688;10.748;2023-07-24T09:25:41;4.17;;;3.40;;
32094;SDS011;18608;53.688;10.748;2023-07-24T09:28:11;4.80;;;3.33;;
32094;SDS011;18608;53.688;10.748;2023-07-24T09:30:38;7.53;;;4.70;;
32094;SDS011;18608;53.688;10.748;2023-07-24T09:33:04;6.43;;;4.37;;
32094;SDS011;18608;53.688;10.748;2023-07-24T09:35:31;4.30;;;3.93;;
32094;SDS011;18608;53.688;10.748;2023-07-24T09:38:04;4.73;;;4.33;;
32094;SDS011;18608;53.688;10.748;2023-07-24T09:45:48;4.93;;;4.47;;
32094;SDS011;18608;53.688;10.748;2023-07-24T09:48:15;5.77;;;4.40;;
32094;SDS011;18608;53.688;10.748;2023-07-24T09:50:42;6.37;;;4.90;;
32094;SDS011;18608;53.688;10.748;2023-07-24T09:56:03;4.77;;;4.30;;
32094;SDS011;18608;53.688;10.748;2023-07-24T09:58:34;5.80;;;5.17;;
32094;SDS011;18608;53.688;10.748;2023-07-24T10:01:04;3.93;;;3.63;;
32094;SDS011;18608;53.688;10.748;2023-07-24T10:03:39;5.17;;;4.63;;
32094;SDS011;18608;53.688;10.748;2023-07-24T10:06:05;8.27;;;5.87;;
32094;SDS011;18608;53.688;10.748;2023-07-24T10:08:37;6.30;;;5.70;;
32094;SDS011;18608;53.688;10.748;2023-07-24T10:11:04;6.00;;;5.40;;
32094;SDS011;18608;53.688;10.748;2023-07-24T10:13:30;4.73;;;4.33;;
32094;SDS011;18608;53.688;10.748;2023-07-24T10:15:56;5.60;;;5.10;;
32094;SDS011;18608;53.688;10.748;2023-07-24T10:18:26;14.70;;;4.67;;
32094;SDS011;18608;53.688;10.748;2023-07-24T10:21:00;5.33;;;4.10;;
32094;SDS011;18608;53.688;10.748;2023-07-24T10:23:26;5.07;;;4.67;;
32094;SDS011;18608;53.688;10.748;2023-07-24T10:25:52;10.83;;;5.27;;
32094;SDS011;18608;53.688;10.748;2023-07-24T10:28:18;5.27;;;4.77;;
32094;SDS011;18608;53.688;10.748;2023-07-24T10:30:44;7.07;;;5.20;;
32094;SDS011;18608;53.688;10.748;2023-07-24T10:33:11;5.40;;;4.60;;
32094;SDS011;18608;53.688;10.748;2023-07-24T10:35:45;7.07;;;6.37;;
32094;SDS011;18608;53.688;10.748;2023-07-24T10:38:13;5.30;;;4.80;;
32094;SDS011;18608;53.688;10.748;2023-07-24T10:40:40;6.27;;;5.00;;
32094;SDS011;18608;53.688;10.748;2023-07-24T10:43:18;6.10;;;5.30;;
32094;SDS011;18608;53.688;10.748;2023-07-24T10:48:12;13.47;;;7.40;;
32094;SDS011;18608;53.688;10.748;2023-07-24T10:50:39;13.10;;;9.10;;
32094;SDS011;18608;53.688;10.748;2023-07-24T10:53:06;15.90;;;6.90;;
32094;SDS011;18608;53.688;10.748;2023-07-24T10:55:32;8.67;;;7.77;;
32094;SDS011;18608;53.688;10.748;2023-07-24T10:57:58;9.40;;;7.70;;
32094;SDS011;18608;53.688;10.748;2023-07-24T11:00:25;9.50;;;8.30;;
32094;SDS011;18608;53.688;10.748;2023-07-24T11:02:52;9.60;;;7.50;;
32094;SDS011;18608;53.688;10.748;2023-07-24T11:05:19;8.63;;;7.73;;
32094;SDS011;18608;53.688;10.748;2023-07-24T11:07:48;10.40;;;8.53;;
32094;SDS011;18608;53.688;10.748;2023-07-24T11:10:23;8.07;;;7.27;;
32094;SDS011;18608;53.688;10.748;2023-07-24T11:12:49;9.13;;;7.70;;
32094;SDS011;18608;53.688;10.748;2023-07-24T11:15:16;9.50;;;8.40;;
32094;SDS011;18608;53.688;10.748;2023-07-24T11:17:49;10.20;;;8.33;;
32094;SDS011;18608;53.688;10.748;2023-07-24T11:20:16;11.03;;;8.43;;
32094;SDS011;18608;53.688;10.748;2023-07-24T11:22:43;11.73;;;8.90;;
32094;SDS011;18608;53.688;10.748;2023-07-24T11:25:11;11.13;;;8.77;;
32094;SDS011;18608;53.688;10.748;2023-07-24T11:27:38;10.03;;;8.90;;
32094;SDS011;18608;53.688;10.748;2023-07-24T11:30:07;11.60;;;9.00;;
32094;SDS011;18608;53.688;10.748;2023-07-24T11:32:33;10.43;;;9.33;;
32094;SDS011;18608;53.688;10.748;2023-07-24T11:35:00;11.67;;;9.30;;
32094;SDS011;18608;53.688;10.748;2023-07-24T11:37:26;14.20;;;10.47;;
32094;SDS011;18608;53.688;10.748;2023-07-24T11:39:59;9.50;;;8.50;;
32094;SDS011;18608;53.688;10.748;2023-07-24T11:42:33;9.23;;;8.30;;
32094;SDS011;18608;53.688;10.748;2023-07-24T11:45:02;10.87;;;9.47;;
32094;SDS011;18608;53.688;10.748;2023-07-24T11:47:28;9.83;;;8.60;;
32094;SDS011;18608;53.688;10.748;2023-07-24T11:50:01;10.50;;;8.50;;
32094;SDS011;18608;53.688;10.748;2023-07-24T11:55:16;9.87;;;8.10;;
32094;SDS011;18608;53.688;10.748;2023-07-24T11:57:43;9.73;;;8.13;;
32094;SDS011;18608;53.688;10.748;2023-07-24T12:00:20;9.80;;;8.67;;
32094;SDS011;18608;53.688;10.748;2023-07-24T12:02:46;10.57;;;8.70;;
32094;SDS011;18608;53.688;10.748;2023-07-24T12:05:12;12.03;;;9.23;;
32094;SDS011;18608;53.688;10.748;2023-07-24T12:07:38;8.63;;;7.77;;
32094;SDS011;18608;53.688;10.748;2023-07-24T12:10:05;12.40;;;9.80;;
32094;SDS011;18608;53.688;10.748;2023-07-24T12:12:43;11.70;;;9.87;;
32094;SDS011;18608;53.688;10.748;2023-07-24T12:15:11;12.57;;;8.97;;
32094;SDS011;18608;53.688;10.748;2023-07-24T12:17:38;10.87;;;8.73;;
32094;SDS011;18608;53.688;10.748;2023-07-24T12:20:04;9.50;;;8.53;;
32094;SDS011;18608;53.688;10.748;2023-07-24T12:22:35;11.47;;;9.60;;
32094;SDS011;18608;53.688;10.748;2023-07-24T12:25:01;9.70;;;8.43;;
32094;SDS011;18608;53.688;10.748;2023-07-24T12:27:31;10.00;;;8.30;;
32094;SDS011;18608;53.688;10.748;2023-07-24T12:29:57;9.00;;;8.10;;
32094;SDS011;18608;53.688;10.748;2023-07-24T12:32:24;13.67;;;9.93;;
32094;SDS011;18608;53.688;10.748;2023-07-24T12:34:50;10.10;;;8.90;;
32094;SDS011;18608;53.688;10.748;2023-07-24T12:37:17;13.67;;;10.50;;
32094;SDS011;18608;53.688;10.748;2023-07-24T12:39:44;11.27;;;8.83;;
32094;SDS011;18608;53.688;10.748;2023-07-24T12:42:10;11.40;;;8.80;;
32094;SDS011;18608;53.688;10.748;2023-07-24T12:44:36;10.97;;;8.17;;
32094;SDS011;18608;53.688;10.748;2023-07-24T12:47:03;11.37;;;8.50;;
32094;SDS011;18608;53.688;10.748;2023-07-24T12:49:29;9.60;;;7.53;;
32094;SDS011;18608;53.688;10.748;2023-07-24T12:51:55;9.20;;;7.60;;
32094;SDS011;18608;53.688;10.748;2023-07-24T12:54:21;8.13;;;7.23;;
32094;SDS011;18608;53.688;10.748;2023-07-24T12:56:48;8.93;;;8.03;;
32094;SDS011;18608;53.688;10.748;2023-07-24T12:59:17;8.33;;;7.53;;
32094;SDS011;18608;53.688;10.748;2023-07-24T13:01:43;8.47;;;7.57;;
32094;SDS011;18608;53.688;10.748;2023-07-24T13:04:09;7.07;;;6.47;;
32094;SDS011;18608;53.688;10.748;2023-07-24T13:06:35;8.17;;;7.37;;
32094;SDS011;18608;53.688;10.748;2023-07-24T13:09:01;11.33;;;7.00;;
32094;SDS011;18608;53.688;10.748;2023-07-24T13:11:28;8.87;;;6.43;;
32094;SDS011;18608;53.688;10.748;2023-07-24T13:13:54;5.90;;;5.40;;
32094;SDS011;18608;53.688;10.748;2023-07-24T13:16:20;5.43;;;5.03;;
32094;SDS011;18608;53.688;10.748;2023-07-24T13:18:46;6.83;;;6.23;;
32094;SDS011;18608;53.688;10.748;2023-07-24T13:21:12;8.80;;;6.03;;
32094;SDS011;18608;53.688;10.748;2023-07-24T13:23:39;6.10;;;5.63;;
32094;SDS011;18608;53.688;10.748;2023-07-24T13:26:05;6.40;;;5.90;;
32094;SDS011;18608;53.688;10.748;2023-07-24T13:28:33;6.23;;;5.73;;
32094;SDS011;18608;53.688;10.748;2023-07-24T13:30:59;6.37;;;5.77;;
32094;SDS011;18608;53.688;10.748;2023-07-24T13:33:25;7.77;;;7.07;;
32094;SDS011;18608;53.688;10.748;2023-07-24T13:35:51;7.50;;;6.20;;
32094;SDS011;18608;53.688;10.748;2023-07-24T13:38:17;7.23;;;5.77;;
32094;SDS011;18608;53.688;10.748;2023-07-24T13:40:43;7.63;;;5.50;;
32094;SDS011;18608;53.688;10.748;2023-07-24T13:43:09;6.53;;;5.20;;
32094;SDS011;18608;53.688;10.748;2023-07-24T13:45:35;4.80;;;4.40;;
32094;SDS011;18608;53.688;10.748;2023-07-24T13:48:01;5.73;;;5.20;;
32094;SDS011;18608;53.688;10.748;2023-07-24T13:50:27;5.47;;;4.90;;
32094;SDS011;18608;53.688;10.748;2023-07-24T13:52:53;5.97;;;5.30;;
32094;SDS011;18608;53.688;10.748;2023-07-24T13:55:19;6.63;;;5.33;;
32094;SDS011;18608;53.688;10.748;2023-07-24T13:57:45;5.60;;;5.10;;
32094;SDS011;18608;53.688;10.748;2023-07-24T14:00:11;4.50;;;4.20;;
32094;SDS011;18608;53.688;10.748;2023-07-24T14:02:38;4.97;;;4.57;;
32094;SDS011;18608;53.688;10.748;2023-07-24T14:05:04;5.17;;;4.70;;
32094;SDS011;18608;53.688;10.748;2023-07-24T14:07:30;5.10;;;4.60;;
32094;SDS011;18608;53.688;10.748;2023-07-24T14:09:56;6.43;;;4.50;;
32094;SDS011;18608;53.688;10.748;2023-07-24T14:12:22;5.10;;;4.60;;
32094;SDS011;18608;53.688;10.748;2023-07-24T14:14:48;4.73;;;4.37;;
32094;SDS011;18608;53.688;10.748;2023-07-24T14:17:14;5.07;;;4.67;;
32094;SDS011;18608;53.688;10.748;2023-07-24T14:19:40;4.77;;;4.37;;
32094;SDS011;18608;53.688;10.748;2023-07-24T14:22:06;5.50;;;4.87;;
32094;SDS011;18608;53.688;10.748;2023-07-24T14:24:32;5.30;;;4.80;;
32094;SDS011;18608;53.688;10.748;2023-07-24T14:26:58;4.97;;;4.50;;
32094;SDS011;18608;53.688;10.748;2023-07-24T14:29:24;5.43;;;4.93;;
32094;SDS011;18608;53.688;10.748;2023-07-24T14:31:50;5.37;;;4.87;;
32094;SDS011;18608;53.688;10.748;2023-07-24T14:34:16;7.10;;;4.77;;
32094;SDS011;18608;53.688;10.748;2023-07-24T14:36:42;6.00;;;4.20;;
32094;SDS011;18608;53.688;10.748;2023-07-24T14:39:08;5.03;;;4.53;;
32094;SDS011;18608;53.688;10.748;2023-07-24T14:41:34;5.30;;;4.33;;
32094;SDS011;18608;53.688;10.748;2023-07-24T14:44:00;4.60;;;4.20;;